Bruce L. Hahn — WDH6451 — position and weather

sailwx.info

Track history (hours):
 
Tides and Currents Weather Stations Pressure Air Temp Water Temp Dewpoint Dewpoint Depression Visibility Wind Speed Wind Dir Waves Ship Positions

Bruce L. Hahn

Owner: Marquette Transportation Co. LLC, Paducah, KY. More information available from US FCC via Universal Licensing System and Coast Guard Vessel Documentation Center.

Last reported at 2017-Nov-16 14:12 UTC. Time now 2017-Nov-21 19:32 UTC.
Position N 32°54' W 091°04'.

Length 52 m; draft 3 m.

Type: Ship (hazmat cat B). MMSI: 367638090.

Date/timePositionNaut miles runAvg speedWind from/ knotsBaromVisibWave heightAir tempDewpointWater temp
2017-Nov-16 14:12N 32°54' W 091°04'6 8.5
2017-Nov-16 13:30N 32°50' W 091°09'5 9.3
2017-Nov-16 13:00N 32°45' W 091°09'5 7.6
2017-Nov-16 12:24N 32°44' W 091°04'4 7.5
2017-Nov-16 11:50N 32°40' W 091°07'3 8.7
2017-Nov-16 11:30N 32°38' W 091°09'4 8.4
2017-Nov-16 11:00N 32°35' W 091°07'4 7.2
2017-Nov-16 10:30N 32°31' W 091°06'4 8.4
2017-Nov-16 10:00N 32°27' W 091°05'5 9.2
2017-Nov-16 09:30N 32°25' W 091°00'3 6.7
2017-Nov-16 09:00N 32°22' W 091°00'4 8.7
2017-Nov-16 08:30N 32°21' W 090°55'2 4.3
2017-Nov-16 08:00N 32°19' W 090°55'3 6.6
2017-Nov-16 07:30N 32°16' W 090°57'4 7.8
2017-Nov-16 07:00N 32°13' W 090°59'4 8.5
2017-Nov-16 06:30N 32°09' W 091°00'3 6.5
2017-Nov-16 05:58N 32°08' W 091°04'2 4.5
2017-Nov-16 05:30N 32°07' W 091°06'4 8.5
2017-Nov-16 05:00N 32°03' W 091°03'5 9.3
2017-Nov-16 04:30N 31°59' W 091°06'4 8.9
2017-Nov-16 04:00N 31°58' W 091°11'12 7.6
2017-Nov-16 02:29N 31°50' W 091°21'  
2017-Nov-11 16:06N 31°51' W 091°16'8 8.9
2017-Nov-11 15:11N 31°59' W 091°11'3 9.2
2017-Nov-11 14:50N 31°59' W 091°07'3 8.9
2017-Nov-11 14:29N 32°01' W 091°04'6 8.3
2017-Nov-11 13:48N 32°07' W 091°06'2 6.0
2017-Nov-11 13:30N 32°08' W 091°05'4 8.0
2017-Nov-11 13:00N 32°09' W 091°00'5 9.7
2017-Nov-11 12:30N 32°13' W 090°59'5 9.2
2017-Nov-11 12:00N 32°17' W 090°56'4 7.0
2017-Nov-11 11:30N 32°21' W 090°55'4 8.8
2017-Nov-11 11:00N 32°21' W 090°60'4 8.1
2017-Nov-11 10:30N 32°25' W 091°01'4 8.7
2017-Nov-11 10:00N 32°27' W 091°05'4 8.6
2017-Nov-11 09:30N 32°31' W 091°06'4 8.8
2017-Nov-11 09:00N 32°35' W 091°08'4 8.8
2017-Nov-11 08:30N 32°40' W 091°08'5 7.9
2017-Nov-11 07:49N 32°43' W 091°03'5 6.1
2017-Nov-11 07:00N 32°45' W 091°09'  
Track history (hours):
 
Tides and Currents Weather Stations Pressure Air Temp Water Temp Dewpoint Dewpoint Depression Visibility Wind Speed Wind Dir Waves Ship Positions

Bruce L. Hahn

Owner: Marquette Transportation Co. LLC, Paducah, KY. More information available from US FCC via Universal Licensing System and Coast Guard Vessel Documentation Center.

Last reported at 2017-Nov-16 14:12 UTC. Time now 2017-Nov-21 19:32 UTC.
Position N 32°54' W 091°04'.

Length 52 m; draft 3 m.

Type: Ship (hazmat cat B). MMSI: 367638090.

Date/timePositionNaut miles runAvg speedWind from/ knotsBaromVisibWave heightAir tempDewpointWater temp
2017-Nov-16 14:12N 32°54' W 091°04'6 8.5
2017-Nov-16 13:30N 32°50' W 091°09'5 9.3
2017-Nov-16 13:00N 32°45' W 091°09'5 7.6
2017-Nov-16 12:24N 32°44' W 091°04'4 7.5
2017-Nov-16 11:50N 32°40' W 091°07'3 8.7
2017-Nov-16 11:30N 32°38' W 091°09'4 8.4
2017-Nov-16 11:00N 32°35' W 091°07'4 7.2
2017-Nov-16 10:30N 32°31' W 091°06'4 8.4
2017-Nov-16 10:00N 32°27' W 091°05'5 9.2
2017-Nov-16 09:30N 32°25' W 091°00'3 6.7
2017-Nov-16 09:00N 32°22' W 091°00'4 8.7
2017-Nov-16 08:30N 32°21' W 090°55'2 4.3
2017-Nov-16 08:00N 32°19' W 090°55'3 6.6
2017-Nov-16 07:30N 32°16' W 090°57'4 7.8
2017-Nov-16 07:00N 32°13' W 090°59'4 8.5
2017-Nov-16 06:30N 32°09' W 091°00'3 6.5
2017-Nov-16 05:58N 32°08' W 091°04'2 4.5
2017-Nov-16 05:30N 32°07' W 091°06'4 8.5
2017-Nov-16 05:00N 32°03' W 091°03'5 9.3
2017-Nov-16 04:30N 31°59' W 091°06'4 8.9
2017-Nov-16 04:00N 31°58' W 091°11'12 7.6
2017-Nov-16 02:29N 31°50' W 091°21'  
2017-Nov-11 16:06N 31°51' W 091°16'8 8.9
2017-Nov-11 15:11N 31°59' W 091°11'3 9.2
2017-Nov-11 14:50N 31°59' W 091°07'3 8.9
2017-Nov-11 14:29N 32°01' W 091°04'6 8.3
2017-Nov-11 13:48N 32°07' W 091°06'2 6.0
2017-Nov-11 13:30N 32°08' W 091°05'4 8.0
2017-Nov-11 13:00N 32°09' W 091°00'5 9.7
2017-Nov-11 12:30N 32°13' W 090°59'5 9.2
2017-Nov-11 12:00N 32°17' W 090°56'4 7.0
2017-Nov-11 11:30N 32°21' W 090°55'4 8.8
2017-Nov-11 11:00N 32°21' W 090°60'4 8.1
2017-Nov-11 10:30N 32°25' W 091°01'4 8.7
2017-Nov-11 10:00N 32°27' W 091°05'4 8.6
2017-Nov-11 09:30N 32°31' W 091°06'4 8.8
2017-Nov-11 09:00N 32°35' W 091°08'4 8.8
2017-Nov-11 08:30N 32°40' W 091°08'5 7.9
2017-Nov-11 07:49N 32°43' W 091°03'5 6.1
2017-Nov-11 07:00N 32°45' W 091°09'  

Dump ship's entire track history